createdAt,value
2023-04-27T00:01:12.330Z,3.92
2023-04-27T00:03:39.946Z,3.75
2023-04-27T00:06:07.792Z,3.65
2023-04-27T00:08:34.881Z,4.50
2023-04-27T00:11:01.963Z,4.32
2023-04-27T00:13:28.854Z,3.92
2023-04-27T00:15:55.806Z,3.83
2023-04-27T00:18:22.639Z,4.93
2023-04-27T00:20:49.835Z,4.25
2023-04-27T00:23:16.562Z,4.03
2023-04-27T00:25:43.217Z,3.97
2023-04-27T00:28:09.946Z,4.38
2023-04-27T00:30:36.639Z,4.38
2023-04-27T00:33:03.423Z,4.07
2023-04-27T00:35:30.107Z,4.03
2023-04-27T00:37:56.807Z,4.00
2023-04-27T00:40:23.778Z,4.70
2023-04-27T00:42:50.507Z,4.25
2023-04-27T00:45:20.250Z,4.80
2023-04-27T00:47:47.039Z,4.40
2023-04-27T00:50:14.106Z,4.15
2023-04-27T00:52:40.929Z,4.38
2023-04-27T00:55:08.498Z,4.50
2023-04-27T00:57:35.818Z,4.28
2023-04-27T01:00:06.077Z,4.10
2023-04-27T01:02:33.030Z,4.72
2023-04-27T01:05:01.253Z,4.40
2023-04-27T01:07:27.961Z,4.32
2023-04-27T01:09:54.730Z,4.35
2023-04-27T01:12:21.426Z,4.57
2023-04-27T01:14:48.104Z,4.22
2023-04-27T01:17:14.799Z,4.13
2023-04-27T01:19:42.312Z,4.53
2023-04-27T01:22:09.445Z,4.50
2023-04-27T01:24:36.664Z,4.63
2023-04-27T01:27:04.286Z,4.57
2023-04-27T01:29:31.108Z,4.55
2023-04-27T01:31:58.024Z,4.80
2023-04-27T01:34:24.727Z,5.15
2023-04-27T01:36:51.414Z,4.95
2023-04-27T01:39:18.127Z,4.57
2023-04-27T01:41:44.877Z,4.40
2023-04-27T01:44:12.126Z,4.45
2023-04-27T01:46:38.960Z,4.22
2023-04-27T01:49:06.111Z,4.57
2023-04-27T01:51:33.055Z,5.40
2023-04-27T01:53:59.777Z,4.68
2023-04-27T01:56:26.510Z,4.45
2023-04-27T01:58:53.655Z,4.47
2023-04-27T02:01:21.030Z,4.25
2023-04-27T02:03:47.889Z,4.00
2023-04-27T02:06:14.730Z,4.60
2023-04-27T02:08:41.441Z,4.78
2023-04-27T02:11:08.203Z,4.50
2023-04-27T02:13:34.885Z,4.78
2023-04-27T02:16:04.394Z,4.20
2023-04-27T02:18:55.245Z,4.18
2023-04-27T02:21:21.923Z,4.20
2023-04-27T02:23:48.624Z,4.20
2023-04-27T02:26:22.244Z,4.20
2023-04-27T02:28:48.966Z,4.55
2023-04-27T02:31:16.045Z,4.22
2023-04-27T02:33:42.760Z,5.05
2023-04-27T02:36:09.550Z,4.70
2023-04-27T02:38:36.223Z,4.30
2023-04-27T02:41:03.021Z,5.32
2023-04-27T02:43:29.824Z,6.38
2023-04-27T02:45:56.463Z,7.88
2023-04-27T02:48:23.206Z,8.52
2023-04-27T02:50:49.846Z,10.77
2023-04-27T02:53:16.548Z,16.65
2023-04-27T02:55:49.510Z,22.30
2023-04-27T02:58:16.941Z,23.73
2023-04-27T03:00:43.930Z,19.92
2023-04-27T03:03:10.804Z,15.43
2023-04-27T03:05:38.212Z,8.98
2023-04-27T03:08:05.203Z,8.30
2023-04-27T03:10:31.913Z,8.23
2023-04-27T03:12:58.809Z,7.05
2023-04-27T03:15:25.427Z,6.50
2023-04-27T03:17:52.214Z,4.95
2023-04-27T03:20:19.015Z,4.95
2023-04-27T03:22:45.994Z,4.80
2023-04-27T03:25:12.710Z,4.55
2023-04-27T03:27:39.468Z,4.13
2023-04-27T03:30:07.270Z,4.63
2023-04-27T03:32:33.992Z,5.10
2023-04-27T03:35:00.824Z,4.55
2023-04-27T03:37:27.518Z,4.30
2023-04-27T03:39:54.179Z,5.10
2023-04-27T03:42:20.848Z,4.88
2023-04-27T03:44:47.476Z,4.97
2023-04-27T03:47:14.141Z,4.47
2023-04-27T03:49:40.909Z,4.47
2023-04-27T03:52:07.593Z,4.25
2023-04-27T03:54:34.271Z,5.00
2023-04-27T03:57:02.725Z,3.70
2023-04-27T03:59:30.384Z,4.57
2023-04-27T04:01:59.506Z,4.30
2023-04-27T04:04:28.006Z,4.15
2023-04-27T04:06:54.950Z,4.25
2023-04-27T04:09:23.824Z,4.30
2023-04-27T04:11:52.482Z,4.20
2023-04-27T04:14:19.122Z,4.22
2023-04-27T04:16:46.464Z,5.03
2023-04-27T04:19:13.740Z,4.05
2023-04-27T04:21:40.930Z,4.70
2023-04-27T04:24:07.820Z,4.32
2023-04-27T04:26:35.619Z,4.47
2023-04-27T04:29:02.334Z,4.60
2023-04-27T04:31:29.890Z,4.53
2023-04-27T04:33:56.910Z,5.15
2023-04-27T04:36:24.071Z,4.15
2023-04-27T04:38:51.637Z,4.20
2023-04-27T04:41:19.415Z,4.30
2023-04-27T04:43:48.296Z,4.00
2023-04-27T04:46:15.045Z,4.13
2023-04-27T04:48:41.780Z,4.03
2023-04-27T04:51:08.552Z,4.25
2023-04-27T04:53:35.334Z,4.53
2023-04-27T04:56:28.220Z,4.47
2023-04-27T04:58:54.878Z,4.55
2023-04-27T05:01:21.956Z,5.18
2023-04-27T05:03:48.832Z,4.45
2023-04-27T05:06:15.820Z,4.40
2023-04-27T05:08:42.538Z,4.72
2023-04-27T05:11:09.222Z,4.15
2023-04-27T05:13:36.525Z,4.30
2023-04-27T05:16:07.395Z,4.15
2023-04-27T05:18:34.543Z,4.75
2023-04-27T05:21:01.313Z,4.30
2023-04-27T05:23:28.027Z,4.63
2023-04-27T05:25:54.716Z,4.10
2023-04-27T05:28:21.554Z,4.00
2023-04-27T05:30:48.279Z,4.38
2023-04-27T05:33:16.246Z,4.78
2023-04-27T05:35:42.997Z,4.72
2023-04-27T05:38:09.637Z,3.88
2023-04-27T05:40:36.397Z,3.88
2023-04-27T05:43:05.692Z,4.00
2023-04-27T05:45:32.648Z,3.95
2023-04-27T05:47:59.307Z,4.25
2023-04-27T05:50:26.117Z,5.00
2023-04-27T05:52:52.753Z,4.00
2023-04-27T05:55:19.453Z,5.47
2023-04-27T05:57:47.727Z,3.90
2023-04-27T06:00:19.782Z,4.32
2023-04-27T06:02:46.555Z,4.20
2023-04-27T06:05:13.609Z,4.15
2023-04-27T06:07:41.430Z,4.45
2023-04-27T06:10:08.983Z,4.70
2023-04-27T06:12:35.730Z,4.13
2023-04-27T06:15:08.153Z,4.10
2023-04-27T06:17:38.698Z,3.72
2023-04-27T06:20:12.277Z,3.72
2023-04-27T06:22:39.107Z,4.78
2023-04-27T06:25:06.869Z,7.50
2023-04-27T06:27:34.348Z,7.03
2023-04-27T06:30:01.499Z,6.57
2023-04-27T06:32:28.256Z,4.40
2023-04-27T06:34:55.037Z,4.88
2023-04-27T06:37:21.710Z,4.50
2023-04-27T06:39:48.645Z,4.57
2023-04-27T06:42:15.616Z,4.55
2023-04-27T06:44:42.287Z,4.63
2023-04-27T06:47:09.015Z,4.03
2023-04-27T06:49:35.692Z,4.22
2023-04-27T06:52:03.148Z,4.00
2023-04-27T06:54:29.829Z,4.40
2023-04-27T06:56:56.578Z,4.13
2023-04-27T06:59:23.313Z,4.10
2023-04-27T07:01:50.159Z,4.95
2023-04-27T07:04:17.274Z,3.80
2023-04-27T07:06:44.784Z,3.85
2023-04-27T07:09:20.453Z,5.65
2023-04-27T07:11:53.792Z,4.72
2023-04-27T07:14:20.799Z,4.40
2023-04-27T07:16:47.789Z,4.03
2023-04-27T07:19:14.679Z,3.80
2023-04-27T07:21:41.749Z,4.35
2023-04-27T07:24:08.537Z,3.92
2023-04-27T07:26:35.218Z,4.05
2023-04-27T07:29:08.300Z,4.68
2023-04-27T07:31:41.449Z,4.18
2023-04-27T07:34:08.603Z,4.10
2023-04-27T07:36:35.313Z,3.88
2023-04-27T07:39:02.437Z,4.30
2023-04-27T07:41:29.153Z,4.68
2023-04-27T07:43:55.983Z,3.92
2023-04-27T07:46:22.727Z,4.40
2023-04-27T07:48:50.420Z,4.50
2023-04-27T07:51:17.703Z,4.05
2023-04-27T07:53:46.031Z,5.82
2023-04-27T07:56:14.387Z,4.70
2023-04-27T07:58:41.106Z,4.13
2023-04-27T08:01:07.843Z,4.18
2023-04-27T08:03:34.637Z,3.90
2023-04-27T08:06:01.615Z,4.30
2023-04-27T08:08:29.531Z,4.57
2023-04-27T08:10:56.473Z,4.05
2023-04-27T08:13:24.923Z,3.95
2023-04-27T08:15:54.415Z,4.65
2023-04-27T08:18:21.744Z,4.50
2023-04-27T08:20:48.731Z,4.70
2023-04-27T08:23:15.759Z,4.63
2023-04-27T08:25:42.483Z,4.30
2023-04-27T08:28:09.172Z,3.63
2023-04-27T08:30:36.267Z,4.50
2023-04-27T08:33:03.138Z,4.15
2023-04-27T08:35:29.929Z,4.53
2023-04-27T08:37:56.652Z,4.45
2023-04-27T08:40:25.007Z,5.22
2023-04-27T08:42:59.015Z,5.00
2023-04-27T08:45:26.439Z,3.88
2023-04-27T08:47:53.829Z,3.22
2023-04-27T08:50:24.461Z,3.70
2023-04-27T08:52:52.114Z,3.88
2023-04-27T08:55:18.896Z,3.90
2023-04-27T08:57:58.484Z,3.35
2023-04-27T09:00:26.534Z,3.45
2023-04-27T09:02:53.608Z,2.95
2023-04-27T09:05:22.232Z,3.53
2023-04-27T09:07:59.384Z,2.97
2023-04-27T09:10:26.418Z,2.28
2023-04-27T09:12:57.303Z,3.05
2023-04-27T09:15:24.182Z,2.50
2023-04-27T09:17:57.687Z,3.00
2023-04-27T09:20:26.976Z,2.78
2023-04-27T09:22:55.653Z,2.75
2023-04-27T09:25:24.037Z,3.72
2023-04-27T09:27:51.019Z,2.70
2023-04-27T09:30:19.280Z,2.88
2023-04-27T09:33:03.805Z,3.17
2023-04-27T09:35:32.124Z,2.45
2023-04-27T09:37:59.670Z,3.55
2023-04-27T09:40:29.920Z,3.25
2023-04-27T09:42:58.600Z,2.60
2023-04-27T09:45:26.722Z,2.70
2023-04-27T09:47:53.811Z,1.95
2023-04-27T09:50:25.255Z,2.95
2023-04-27T09:52:52.208Z,2.92
2023-04-27T09:55:34.992Z,3.08
2023-04-27T09:58:30.989Z,3.05
2023-04-27T10:01:06.720Z,2.88
2023-04-27T10:04:22.788Z,2.75
2023-04-27T10:07:04.302Z,3.03
2023-04-27T10:09:38.197Z,2.85
2023-04-27T10:12:19.887Z,3.78
2023-04-27T10:14:57.523Z,3.72
2023-04-27T10:17:32.381Z,4.75
2023-04-27T10:20:03.942Z,3.63
2023-04-27T10:22:43.589Z,3.33
2023-04-27T10:25:25.637Z,3.38
2023-04-27T10:27:58.452Z,3.55
2023-04-27T10:32:56.584Z,3.15
2023-04-27T10:35:42.014Z,3.10
2023-04-27T10:38:20.659Z,3.53
2023-04-27T10:41:07.387Z,3.50
2023-04-27T10:43:35.659Z,3.05
2023-04-27T10:46:12.786Z,2.70
2023-04-27T10:48:41.219Z,3.70
2023-04-27T10:51:08.481Z,4.38
2023-04-27T10:53:38.460Z,3.38
2023-04-27T10:56:08.776Z,3.20
2023-04-27T10:58:47.967Z,3.60
2023-04-27T11:01:25.070Z,3.10
2023-04-27T11:03:57.291Z,3.25
2023-04-27T11:06:24.489Z,3.28
2023-04-27T11:08:51.611Z,3.38
2023-04-27T11:11:18.595Z,3.47
2023-04-27T11:13:48.788Z,3.60
2023-04-27T11:16:20.949Z,4.00
2023-04-27T11:18:48.260Z,3.97
2023-04-27T11:21:17.112Z,4.15
2023-04-27T11:23:44.884Z,4.15
2023-04-27T11:26:17.149Z,3.42
2023-04-27T11:28:45.286Z,4.10
2023-04-27T11:31:12.519Z,3.88
2023-04-27T11:33:40.377Z,3.70
2023-04-27T11:36:17.693Z,3.45
2023-04-27T11:38:44.676Z,4.28
2023-04-27T11:41:11.579Z,4.45
2023-04-27T11:43:43.137Z,4.10
2023-04-27T11:46:12.829Z,3.92
2023-04-27T11:48:40.199Z,4.43
2023-04-27T11:51:10.361Z,4.45
2023-04-27T11:53:42.678Z,4.30
2023-04-27T11:56:11.279Z,4.07
2023-04-27T11:58:39.843Z,3.45
2023-04-27T12:01:07.519Z,4.13
2023-04-27T12:03:34.640Z,4.13
2023-04-27T12:08:31.861Z,4.15
2023-04-27T12:10:58.805Z,3.60
2023-04-27T12:13:25.635Z,4.13
2023-04-27T12:15:52.558Z,3.53
2023-04-27T12:18:19.267Z,4.15
2023-04-27T12:20:46.203Z,4.50
2023-04-27T12:23:12.954Z,4.38
2023-04-27T12:25:41.464Z,4.20
2023-04-27T12:28:08.420Z,4.10
2023-04-27T12:30:35.269Z,4.35
2023-04-27T12:33:11.389Z,3.75
2023-04-27T12:35:38.208Z,3.20
2023-04-27T12:38:04.867Z,4.00
2023-04-27T12:40:31.642Z,3.80
2023-04-27T12:43:00.942Z,3.50
2023-04-27T12:45:27.992Z,4.10
2023-04-27T12:48:03.179Z,3.80
2023-04-27T12:50:32.416Z,4.05
2023-04-27T12:52:59.958Z,3.30
2023-04-27T12:55:33.695Z,3.67
2023-04-27T12:58:01.382Z,3.00
2023-04-27T13:00:29.655Z,3.80
2023-04-27T13:02:57.401Z,3.97
2023-04-27T13:05:24.389Z,3.55
2023-04-27T13:07:51.098Z,4.32
2023-04-27T13:10:18.226Z,4.07
2023-04-27T13:12:44.889Z,3.30
2023-04-27T13:15:11.944Z,3.80
2023-04-27T13:17:38.675Z,3.65
2023-04-27T13:20:07.330Z,4.30
2023-04-27T13:22:34.204Z,3.70
2023-04-27T13:25:01.077Z,3.92
2023-04-27T13:27:28.728Z,4.10
2023-04-27T13:29:56.153Z,4.00
2023-04-27T13:32:23.090Z,3.35
2023-04-27T13:34:49.950Z,3.20
2023-04-27T13:37:18.897Z,3.92
2023-04-27T13:39:45.805Z,3.35
2023-04-27T13:42:12.742Z,3.97
2023-04-27T13:44:39.452Z,3.60
2023-04-27T13:47:07.015Z,4.03
2023-04-27T13:49:33.828Z,3.60
2023-04-27T13:52:00.933Z,3.60
2023-04-27T13:54:27.810Z,3.75
2023-04-27T13:56:54.621Z,3.53
2023-04-27T13:59:21.841Z,3.38
2023-04-27T14:01:48.719Z,3.13
2023-04-27T14:04:15.489Z,3.33
2023-04-27T14:06:42.349Z,3.38
2023-04-27T14:09:09.433Z,3.80
2023-04-27T14:11:48.608Z,3.60
2023-04-27T14:14:19.438Z,3.45
2023-04-27T14:16:46.532Z,3.63
2023-04-27T14:19:16.336Z,3.92
2023-04-27T14:21:43.209Z,3.10
2023-04-27T14:24:09.985Z,3.15
2023-04-27T14:26:36.756Z,3.38
2023-04-27T14:29:03.535Z,3.13
2023-04-27T14:31:30.763Z,3.25
2023-04-27T14:33:57.814Z,2.88
2023-04-27T14:36:24.517Z,2.90
2023-04-27T14:38:51.389Z,3.22
2023-04-27T14:41:18.130Z,2.88
2023-04-27T14:43:47.091Z,2.95
2023-04-27T14:46:20.797Z,3.15
2023-04-27T14:48:47.822Z,3.33
2023-04-27T14:51:15.080Z,3.13
2023-04-27T14:53:41.828Z,3.45
2023-04-27T14:56:08.705Z,3.33
2023-04-27T14:58:35.647Z,3.20
2023-04-27T15:01:03.978Z,2.85
2023-04-27T15:03:32.747Z,3.78
2023-04-27T15:06:00.741Z,4.47
2023-04-27T15:08:27.801Z,3.40
2023-04-27T15:10:59.389Z,3.05
2023-04-27T15:13:29.053Z,3.42
2023-04-27T15:15:59.712Z,3.33
2023-04-27T15:18:26.523Z,4.72
2023-04-27T15:20:54.145Z,4.53
2023-04-27T15:23:21.636Z,3.50
2023-04-27T15:25:48.849Z,3.38
2023-04-27T15:28:16.789Z,3.33
2023-04-27T15:30:44.304Z,3.20
2023-04-27T15:33:11.653Z,4.00
2023-04-27T15:35:41.317Z,3.50
2023-04-27T15:38:09.529Z,3.38
2023-04-27T15:40:36.576Z,4.35
2023-04-27T15:43:03.360Z,4.53
2023-04-27T15:45:30.285Z,4.40
2023-04-27T15:47:57.251Z,3.80
2023-04-27T15:50:24.674Z,4.28
2023-04-27T15:52:52.217Z,4.13
2023-04-27T15:55:19.250Z,3.80
2023-04-27T15:57:46.160Z,3.97
2023-04-27T16:00:16.595Z,3.72
2023-04-27T16:02:43.792Z,4.57
2023-04-27T16:05:17.098Z,3.83
2023-04-27T16:07:44.670Z,3.50
2023-04-27T16:10:12.422Z,3.42
2023-04-27T16:12:39.470Z,3.30
2023-04-27T16:15:09.245Z,2.97
2023-04-27T16:17:37.696Z,2.97
2023-04-27T16:20:08.329Z,3.10
2023-04-27T16:22:35.810Z,3.40
2023-04-27T16:25:04.020Z,2.97
2023-04-27T16:27:31.140Z,2.97
2023-04-27T16:29:58.061Z,3.20
2023-04-27T16:32:24.896Z,3.00
2023-04-27T16:34:51.732Z,3.22
2023-04-27T16:37:18.513Z,3.05
2023-04-27T16:39:45.703Z,2.90
2023-04-27T16:42:18.518Z,3.28
2023-04-27T16:47:12.068Z,3.13
2023-04-27T16:49:38.748Z,3.15
2023-04-27T16:52:05.591Z,2.83
2023-04-27T16:54:32.236Z,3.22
2023-04-27T16:56:58.998Z,3.25
2023-04-27T16:59:25.759Z,3.15
2023-04-27T17:01:52.870Z,3.28
2023-04-27T17:04:22.554Z,2.85
2023-04-27T17:06:49.734Z,4.35
2023-04-27T17:09:16.971Z,3.58
2023-04-27T17:11:44.060Z,3.58
2023-04-27T17:14:11.000Z,3.78
2023-04-27T17:16:37.869Z,3.25
2023-04-27T17:19:04.729Z,3.35
2023-04-27T17:21:31.769Z,3.40
2023-04-27T17:23:58.547Z,3.80
2023-04-27T17:26:25.279Z,3.28
2023-04-27T17:28:51.989Z,3.95
2023-04-27T17:31:18.794Z,3.30
2023-04-27T17:33:45.924Z,3.03
2023-04-27T17:36:13.131Z,2.50
2023-04-27T17:38:39.867Z,2.92
2023-04-27T17:41:06.616Z,3.10
2023-04-27T17:43:33.417Z,2.83
2023-04-27T17:46:00.265Z,2.20
2023-04-27T17:48:27.159Z,2.72
2023-04-27T17:50:54.029Z,3.05
2023-04-27T17:53:20.771Z,3.00
2023-04-27T17:55:47.935Z,2.92
2023-04-27T17:58:15.633Z,2.40
2023-04-27T18:00:43.118Z,2.53
2023-04-27T18:03:10.986Z,2.55
2023-04-27T18:05:38.046Z,2.70
2023-04-27T18:08:04.947Z,2.63
2023-04-27T18:10:31.865Z,2.70
2023-04-27T18:12:59.184Z,2.38
2023-04-27T18:15:26.101Z,2.92
2023-04-27T18:17:52.864Z,2.50
2023-04-27T18:20:19.610Z,2.60
2023-04-27T18:22:46.530Z,2.08
2023-04-27T18:25:13.477Z,1.83
2023-04-27T18:27:40.191Z,2.55
2023-04-27T18:30:08.659Z,2.95
2023-04-27T18:32:35.523Z,2.50
2023-04-27T18:35:02.956Z,2.75
2023-04-27T18:37:29.876Z,2.03
2023-04-27T18:39:56.586Z,2.63
2023-04-27T18:42:23.831Z,2.53
2023-04-27T18:44:54.729Z,2.70
2023-04-27T18:47:21.522Z,2.90
2023-04-27T18:49:48.288Z,2.65
2023-04-27T18:52:15.148Z,2.45
2023-04-27T18:54:42.293Z,2.00
2023-04-27T18:57:09.057Z,2.58
2023-04-27T18:59:38.270Z,2.67
2023-04-27T19:02:06.214Z,2.42
2023-04-27T19:04:33.810Z,2.70
2023-04-27T19:07:00.847Z,2.50
2023-04-27T19:09:27.558Z,2.75
2023-04-27T19:12:02.350Z,2.65
2023-04-27T19:14:31.249Z,2.60
2023-04-27T19:16:58.019Z,3.03
2023-04-27T19:19:25.903Z,3.15
2023-04-27T19:21:52.697Z,2.40
2023-04-27T19:24:19.381Z,2.67
2023-04-27T19:26:47.831Z,2.80
2023-04-27T19:29:14.896Z,3.20
2023-04-27T19:31:41.940Z,2.67
2023-04-27T19:34:08.682Z,2.70
2023-04-27T19:36:35.360Z,2.97
2023-04-27T19:39:02.085Z,2.53
2023-04-27T19:41:28.861Z,2.72
2023-04-27T19:43:55.612Z,2.40
2023-04-27T19:46:22.329Z,2.83
2023-04-27T19:48:49.127Z,3.28
2023-04-27T19:51:15.817Z,3.50
2023-04-27T19:53:42.564Z,4.10
2023-04-27T19:56:09.234Z,5.60
2023-04-27T19:58:36.048Z,5.13
2023-04-27T20:01:03.937Z,5.22
2023-04-27T20:03:31.484Z,7.15
2023-04-27T20:05:59.186Z,6.40
2023-04-27T20:08:25.974Z,6.57
2023-04-27T20:10:56.768Z,8.55
2023-04-27T20:13:23.431Z,8.15
2023-04-27T20:15:50.367Z,6.93
2023-04-27T20:18:17.682Z,6.80
2023-04-27T20:20:45.315Z,8.15
2023-04-27T20:23:12.013Z,6.53
2023-04-27T20:25:38.729Z,7.03
2023-04-27T20:28:05.540Z,5.80
2023-04-27T20:30:32.229Z,5.70
2023-04-27T20:32:59.472Z,5.38
2023-04-27T20:35:26.584Z,4.97
2023-04-27T20:37:54.557Z,4.22
2023-04-27T20:40:22.560Z,3.60
2023-04-27T20:42:49.707Z,3.95
2023-04-27T20:45:17.625Z,3.70
2023-04-27T20:47:44.557Z,4.20
2023-04-27T20:50:11.530Z,4.00
2023-04-27T20:52:39.289Z,4.18
2023-04-27T20:55:06.545Z,3.88
2023-04-27T20:57:33.402Z,4.57
2023-04-27T21:00:00.421Z,4.03
2023-04-27T21:02:27.282Z,3.85
2023-04-27T21:04:54.179Z,4.55
2023-04-27T21:07:21.026Z,4.50
2023-04-27T21:09:47.719Z,3.90
2023-04-27T21:12:17.331Z,4.57
2023-04-27T21:14:44.612Z,4.85
2023-04-27T21:17:11.565Z,3.83
2023-04-27T21:19:38.470Z,4.13
2023-04-27T21:22:05.165Z,4.25
2023-04-27T21:24:31.782Z,4.18
2023-04-27T21:26:58.541Z,4.22
2023-04-27T21:29:25.238Z,3.97
2023-04-27T21:31:51.901Z,4.35
2023-04-27T21:34:18.545Z,5.22
2023-04-27T21:36:45.246Z,4.35
2023-04-27T21:39:12.019Z,4.25
2023-04-27T21:41:39.920Z,4.05
2023-04-27T21:44:06.701Z,4.30
2023-04-27T21:46:33.575Z,3.90
2023-04-27T21:49:00.315Z,5.07
2023-04-27T21:51:27.075Z,4.70
2023-04-27T21:53:53.829Z,4.47
2023-04-27T21:56:21.336Z,4.07
2023-04-27T21:58:48.230Z,4.45
2023-04-27T22:01:14.965Z,4.18
2023-04-27T22:03:41.950Z,4.05
2023-04-27T22:06:09.229Z,4.55
2023-04-27T22:08:35.953Z,5.00
2023-04-27T22:11:02.728Z,4.20
2023-04-27T22:13:29.373Z,4.30
2023-04-27T22:15:56.196Z,4.35
2023-04-27T22:18:22.935Z,4.25
2023-04-27T22:20:49.752Z,5.03
2023-04-27T22:23:16.752Z,4.57
2023-04-27T22:25:43.524Z,3.97
2023-04-27T22:28:11.125Z,4.03
2023-04-27T22:30:38.057Z,4.70
2023-04-27T22:33:04.941Z,4.20
2023-04-27T22:35:32.338Z,4.13
2023-04-27T22:37:59.614Z,4.57
2023-04-27T22:40:26.484Z,4.07
2023-04-27T22:42:53.987Z,5.05
2023-04-27T22:45:21.363Z,3.97
2023-04-27T22:47:49.387Z,4.22
2023-04-27T22:50:16.588Z,4.43
2023-04-27T22:52:43.414Z,4.22
2023-04-27T22:55:11.220Z,4.00
2023-04-27T22:57:38.290Z,4.15
2023-04-27T23:00:05.717Z,4.22
2023-04-27T23:02:32.588Z,4.10
2023-04-27T23:04:59.431Z,3.85
2023-04-27T23:07:26.102Z,4.55
2023-04-27T23:09:53.106Z,3.83
2023-04-27T23:12:20.837Z,3.92
2023-04-27T23:14:47.582Z,3.45
2023-04-27T23:17:15.569Z,4.00
2023-04-27T23:19:42.307Z,4.47
2023-04-27T23:22:08.979Z,4.50
2023-04-27T23:24:35.814Z,4.38
2023-04-27T23:27:02.502Z,4.20
2023-04-27T23:29:30.343Z,4.22
2023-04-27T23:32:04.705Z,4.25
2023-04-27T23:34:34.253Z,4.35
2023-04-27T23:37:01.071Z,4.22
2023-04-27T23:39:28.162Z,3.63
2023-04-27T23:41:54.869Z,3.30
2023-04-27T23:44:21.557Z,3.97
2023-04-27T23:46:48.259Z,4.15
2023-04-27T23:49:14.993Z,3.97
2023-04-27T23:51:41.726Z,4.00
2023-04-27T23:54:08.353Z,3.95
2023-04-27T23:56:35.020Z,4.25
2023-04-27T23:59:01.708Z,3.42
